Terminal Aerodrome Forecast
Issued by NWS Spokane, WA

Home | Current Version | Previous Version | Text Only | Print | Product List | Glossary On
Versions: 1 2 3 4 5 6 7 8 9 10 11 12 13 14
000
FTUS46 KOTX 291725
TAFEAT
TAF
KEAT 291725Z 2918/3018 27007KT P6SM FEW100 SCT200
     FM292000 12004KT P6SM FEW100 FEW200
     FM300300 32007KT P6SM FEW200
     FM300600 31013KT P6SM SCT100 SCT200
     FM301100 32010KT P6SM SCT100 SCT250=

USA.gov is the U.S. government's official web portal to all federal, state and local government web resources and services.